Terminal Aerodrome Forecast
Issued by NWS Wilmington, OH

Current Version | Previous Version | Graphics & Text | Print | Product List | Glossary On
Versions: 1 2 3 4 5 6 7 8 9 10 11 12 13 14 15 16 17 18 19 20 21 22 23 24 25 26 27 28 29 30 31 32
000
FTUS41 KILN 192000 AAA
TAFCVG
TAF AMD
KCVG 192055Z 1921/2024 13005KT P6SM VCSH BKN025 OVC050
     FM200300 16003KT P6SM OVC012
     FM201300 10005KT P6SM VCSH BKN025
     FM201800 12005KT P6SM BKN035=

USA.gov is the U.S. government's official web portal to all federal, state and local government web resources and services.